createdAt,value
2023-03-13T00:00:28.690Z,4.47
2023-03-13T00:02:31.395Z,4.63
2023-03-13T00:04:34.068Z,8.43
2023-03-13T00:06:38.565Z,8.70
2023-03-13T00:08:41.447Z,10.23
2023-03-13T00:10:44.138Z,6.07
2023-03-13T00:12:46.721Z,15.20
2023-03-13T00:14:49.381Z,10.63
2023-03-13T00:16:52.092Z,15.32
2023-03-13T00:18:56.103Z,8.23
2023-03-13T00:21:06.907Z,5.78
2023-03-13T00:23:09.633Z,11.30
2023-03-13T00:25:12.331Z,11.60
2023-03-13T00:27:15.371Z,18.13
2023-03-13T00:29:18.012Z,13.30
2023-03-13T00:31:22.343Z,18.08
2023-03-13T00:33:25.014Z,7.95
2023-03-13T00:35:27.604Z,6.95
2023-03-13T00:37:32.282Z,9.35
2023-03-13T00:39:35.081Z,15.43
2023-03-13T00:41:38.339Z,12.57
2023-03-13T00:43:42.788Z,9.60
2023-03-13T00:45:45.417Z,8.27
2023-03-13T00:47:50.166Z,4.85
2023-03-13T00:49:52.761Z,5.57
2023-03-13T00:51:55.368Z,8.10
2023-03-13T00:54:02.909Z,13.23
2023-03-13T00:56:10.965Z,7.47
2023-03-13T00:58:13.547Z,9.40
2023-03-13T01:00:16.769Z,11.23
2023-03-13T01:02:19.564Z,15.27
2023-03-13T01:04:22.527Z,12.10
2023-03-13T01:06:30.750Z,12.05
2023-03-13T01:08:34.024Z,8.93
2023-03-13T01:10:36.949Z,11.18
2023-03-13T01:12:39.581Z,5.75
2023-03-13T01:14:42.212Z,9.35
2023-03-13T01:16:44.804Z,8.88
2023-03-13T01:18:53.250Z,5.93
2023-03-13T01:20:55.863Z,11.70
2023-03-13T01:22:58.528Z,11.63
2023-03-13T01:25:01.126Z,16.85
2023-03-13T01:27:04.156Z,7.63
2023-03-13T01:29:06.835Z,13.05
2023-03-13T01:31:21.866Z,7.05
2023-03-13T01:33:24.543Z,12.55
2023-03-13T01:35:27.149Z,5.93
2023-03-13T01:37:29.802Z,7.57
2023-03-13T01:39:32.484Z,4.30
2023-03-13T01:41:35.480Z,9.65
2023-03-13T01:43:38.462Z,6.60
2023-03-13T01:46:13.747Z,20.45
2023-03-13T01:48:16.479Z,137.38
2023-03-13T01:50:19.176Z,29.63
2023-03-13T01:52:31.288Z,246.48
2023-03-13T01:54:50.331Z,265.92
2023-03-13T01:57:04.722Z,35.72
2023-03-13T01:59:11.055Z,11.15
2023-03-13T02:01:15.589Z,5.25
2023-03-13T02:03:21.381Z,11.57
2023-03-13T02:05:27.739Z,8.63
2023-03-13T02:07:56.436Z,6.85
2023-03-13T02:09:59.574Z,9.73
2023-03-13T02:12:13.781Z,28.63
2023-03-13T02:14:20.796Z,6.43
2023-03-13T02:16:25.343Z,7.85
2023-03-13T02:18:28.477Z,12.23
2023-03-13T02:20:31.480Z,23.40
2023-03-13T02:23:14.473Z,10.85
2023-03-13T02:25:17.083Z,38.60
2023-03-13T02:27:19.827Z,61.95
2023-03-13T02:29:23.326Z,39.45
2023-03-13T02:31:27.490Z,35.30
2023-03-13T02:33:34.652Z,113.13
2023-03-13T02:35:37.596Z,184.50
2023-03-13T02:37:44.205Z,137.68
2023-03-13T02:39:51.133Z,24.15
2023-03-13T02:41:55.071Z,72.22
2023-03-13T02:43:57.681Z,34.00
2023-03-13T02:46:09.398Z,41.95
2023-03-13T02:48:11.995Z,32.60
2023-03-13T02:50:15.163Z,32.58
2023-03-13T02:52:25.112Z,36.80
2023-03-13T02:54:33.811Z,32.15
2023-03-13T02:56:40.620Z,36.58
2023-03-13T02:58:49.837Z,55.70
2023-03-13T03:00:53.764Z,42.00
2023-03-13T03:02:56.761Z,34.45
2023-03-13T03:04:59.375Z,154.02
2023-03-13T03:07:02.031Z,185.68
2023-03-13T03:09:05.304Z,130.80
2023-03-13T03:11:08.133Z,3.35
2023-03-13T03:13:10.755Z,3.53
2023-03-13T03:15:13.812Z,4.63
2023-03-13T03:17:16.421Z,3.55
2023-03-13T03:19:19.050Z,6.55
2023-03-13T03:21:22.745Z,5.90
2023-03-13T03:23:25.331Z,6.68
2023-03-13T03:25:27.986Z,4.88
2023-03-13T03:27:32.124Z,5.25
2023-03-13T03:29:34.722Z,4.53
2023-03-13T03:31:37.373Z,6.03
2023-03-13T03:33:40.653Z,11.82
2023-03-13T03:35:43.270Z,5.70
2023-03-13T03:37:45.799Z,5.65
2023-03-13T03:39:48.467Z,7.97
2023-03-13T03:41:51.038Z,5.38
2023-03-13T03:43:53.656Z,7.50
2023-03-13T03:45:56.332Z,5.70
2023-03-13T03:48:00.007Z,4.78
2023-03-13T03:50:04.147Z,4.82
2023-03-13T03:52:07.117Z,5.47
2023-03-13T03:54:09.713Z,3.47
2023-03-13T03:56:12.340Z,6.00
2023-03-13T03:58:14.913Z,1.90
2023-03-13T04:00:19.385Z,10.75
2023-03-13T04:02:22.080Z,3.35
2023-03-13T04:04:24.699Z,2.97
2023-03-13T04:06:27.236Z,7.20
2023-03-13T04:08:30.081Z,6.82
2023-03-13T04:10:33.292Z,3.45
2023-03-13T04:12:36.127Z,4.32
2023-03-13T04:14:38.805Z,15.02
2023-03-13T04:16:41.560Z,11.75
2023-03-13T04:18:44.160Z,13.38
2023-03-13T04:20:46.954Z,45.33
2023-03-13T04:22:49.562Z,22.30
2023-03-13T04:24:52.217Z,29.83
2023-03-13T04:26:54.856Z,47.47
2023-03-13T04:28:57.607Z,79.18
2023-03-13T04:31:01.614Z,125.38
2023-03-13T04:33:04.422Z,194.52
2023-03-13T04:35:07.413Z,204.48
2023-03-13T04:37:10.149Z,184.68
2023-03-13T04:39:12.814Z,152.95
2023-03-13T04:41:15.454Z,137.13
2023-03-13T04:43:18.072Z,224.23
2023-03-13T04:45:20.865Z,244.57
2023-03-13T04:47:23.502Z,289.85
2023-03-13T04:49:26.159Z,325.80
2023-03-13T04:51:28.832Z,399.17
2023-03-13T04:53:31.542Z,383.98
2023-03-13T04:55:34.103Z,368.27
2023-03-13T04:57:36.687Z,232.90
2023-03-13T04:59:39.404Z,165.02
2023-03-13T05:01:43.142Z,61.05
2023-03-13T05:03:46.552Z,5.20
2023-03-13T05:05:49.283Z,1.95
2023-03-13T05:07:51.837Z,0.77
2023-03-13T05:09:54.451Z,3.22
2023-03-13T05:11:58.265Z,1.83
2023-03-13T05:14:01.119Z,1.65
2023-03-13T05:16:03.868Z,3.28
2023-03-13T05:18:06.514Z,1.00
2023-03-13T05:20:11.559Z,1.63
2023-03-13T05:22:14.142Z,1.17
2023-03-13T05:24:16.766Z,40.75
2023-03-13T05:26:19.405Z,1.15
2023-03-13T05:28:22.179Z,1.52
2023-03-13T05:30:25.006Z,1.67
2023-03-13T05:32:27.733Z,2.55
2023-03-13T05:34:30.475Z,3.38
2023-03-13T05:36:33.087Z,5.55
2023-03-13T05:38:35.779Z,7.20
2023-03-13T05:40:38.349Z,6.82
2023-03-13T05:42:40.928Z,3.03
2023-03-13T05:44:43.627Z,3.17
2023-03-13T05:46:46.327Z,6.93
2023-03-13T05:48:49.069Z,3.15
2023-03-13T05:50:51.652Z,2.90
2023-03-13T05:52:54.261Z,1.63
2023-03-13T05:54:57.078Z,0.98
2023-03-13T05:56:59.636Z,2.75
2023-03-13T05:59:02.258Z,3.58
2023-03-13T06:01:13.229Z,2.47
2023-03-13T06:03:15.867Z,2.13
2023-03-13T06:05:18.597Z,2.95
2023-03-13T06:07:21.280Z,14.23
2023-03-13T06:09:23.934Z,19.20
2023-03-13T06:11:26.530Z,12.80
2023-03-13T06:13:29.828Z,4.32
2023-03-13T06:15:32.730Z,4.50
2023-03-13T06:17:36.299Z,3.88
2023-03-13T06:19:38.995Z,3.80
2023-03-13T06:21:42.713Z,2.55
2023-03-13T06:23:45.420Z,1.58
2023-03-13T06:25:49.624Z,1.90
2023-03-13T06:27:52.219Z,1.52
2023-03-13T06:29:54.935Z,1.92
2023-03-13T06:31:57.785Z,3.15
2023-03-13T06:34:00.707Z,1.83
2023-03-13T06:36:04.285Z,2.28
2023-03-13T06:38:06.970Z,2.00
2023-03-13T06:40:10.895Z,1.25
2023-03-13T06:42:13.513Z,1.30
2023-03-13T06:44:16.188Z,1.10
2023-03-13T06:46:24.443Z,2.45
2023-03-13T06:48:27.131Z,0.95
2023-03-13T06:50:29.919Z,0.73
2023-03-13T06:52:43.082Z,0.50
2023-03-13T06:54:46.454Z,1.25
2023-03-13T06:56:49.273Z,1.77
2023-03-13T06:58:52.018Z,0.95
2023-03-13T07:00:54.911Z,1.13
2023-03-13T07:02:58.009Z,0.95
2023-03-13T07:05:02.436Z,1.30
2023-03-13T07:07:05.957Z,2.67
2023-03-13T07:09:08.748Z,1.20
2023-03-13T07:11:13.565Z,2.03
2023-03-13T07:13:16.150Z,1.40
2023-03-13T07:15:18.812Z,1.48
2023-03-13T07:17:22.708Z,1.65
2023-03-13T07:19:29.337Z,1.77
2023-03-13T07:21:33.150Z,2.13
2023-03-13T07:23:40.439Z,0.98
2023-03-13T07:25:43.018Z,1.15
2023-03-13T07:27:45.853Z,1.20
2023-03-13T07:29:48.854Z,5.05
2023-03-13T07:31:51.638Z,2.22
2023-03-13T07:33:57.996Z,2.22
2023-03-13T07:36:00.898Z,6.07
2023-03-13T07:38:03.536Z,1.40
2023-03-13T07:40:06.749Z,1.95
2023-03-13T07:42:13.681Z,2.50
2023-03-13T07:44:18.477Z,4.63
2023-03-13T07:46:21.851Z,2.67
2023-03-13T07:48:28.221Z,1.80
2023-03-13T07:50:30.844Z,0.85
2023-03-13T07:52:33.591Z,3.33
2023-03-13T07:54:36.197Z,3.90
2023-03-13T07:56:39.041Z,2.00
2023-03-13T07:58:42.715Z,1.42
2023-03-13T08:00:45.358Z,2.00
2023-03-13T08:02:47.986Z,2.25
2023-03-13T08:04:54.199Z,3.55
2023-03-13T08:06:57.084Z,1.70
2023-03-13T08:09:00.127Z,1.67
2023-03-13T08:11:10.229Z,3.53
2023-03-13T08:13:12.835Z,1.63
2023-03-13T08:15:15.473Z,2.50
2023-03-13T08:17:18.047Z,1.33
2023-03-13T08:19:20.812Z,1.98
2023-03-13T08:21:32.422Z,1.88
2023-03-13T08:23:35.840Z,1.08
2023-03-13T08:25:38.619Z,1.45
2023-03-13T08:27:41.647Z,2.63
2023-03-13T08:29:44.265Z,1.60
2023-03-13T08:31:52.852Z,1.23
2023-03-13T08:33:55.565Z,1.30
2023-03-13T08:35:58.282Z,1.33
2023-03-13T08:38:00.907Z,1.20
2023-03-13T08:40:04.287Z,1.48
2023-03-13T08:42:11.714Z,1.75
2023-03-13T08:44:16.577Z,3.13
2023-03-13T08:46:19.838Z,2.08
2023-03-13T08:48:23.175Z,1.67
2023-03-13T08:50:25.915Z,1.25
2023-03-13T08:52:28.604Z,1.08
2023-03-13T08:54:31.342Z,1.88
2023-03-13T08:56:35.044Z,1.08
2023-03-13T08:58:38.529Z,1.40
2023-03-13T09:00:41.106Z,2.58
2023-03-13T09:02:43.703Z,1.88
2023-03-13T09:04:47.861Z,2.33
2023-03-13T09:06:50.436Z,1.15
2023-03-13T09:08:53.047Z,2.58
2023-03-13T09:10:57.965Z,0.82
2023-03-13T09:13:00.630Z,1.17
2023-03-13T09:15:03.285Z,0.85
2023-03-13T09:17:06.875Z,1.77
2023-03-13T09:19:09.607Z,2.15
2023-03-13T09:21:20.962Z,1.75
2023-03-13T09:23:24.174Z,1.35
2023-03-13T09:25:26.920Z,1.42
2023-03-13T09:27:29.682Z,0.63
2023-03-13T09:29:33.506Z,7.03
2023-03-13T09:31:36.129Z,1.02
2023-03-13T09:33:39.431Z,1.95
2023-03-13T09:35:42.371Z,1.35
2023-03-13T09:37:45.003Z,1.58
2023-03-13T09:39:49.941Z,1.27
2023-03-13T09:42:01.511Z,1.35
2023-03-13T09:44:13.577Z,1.70
2023-03-13T09:48:24.068Z,1.42
2023-03-13T09:50:40.574Z,1.90
2023-03-13T09:52:44.203Z,1.38
2023-03-13T09:54:55.928Z,1.90
2023-03-13T09:57:40.849Z,1.05
2023-03-13T10:00:02.926Z,2.03
2023-03-13T10:02:21.963Z,1.40
2023-03-13T10:04:46.498Z,1.13
2023-03-13T10:06:49.575Z,2.67
2023-03-13T10:08:52.995Z,1.40
2023-03-13T10:11:04.742Z,0.82
2023-03-13T10:13:20.168Z,1.63
2023-03-13T10:15:43.700Z,0.50
2023-03-13T10:17:46.813Z,0.93
2023-03-13T10:19:59.222Z,2.05
2023-03-13T10:22:10.905Z,1.58
2023-03-13T10:24:43.073Z,0.93
2023-03-13T10:26:45.673Z,1.67
2023-03-13T10:28:48.578Z,0.98
2023-03-13T10:30:58.870Z,0.80
2023-03-13T10:33:07.088Z,1.00
2023-03-13T10:35:20.576Z,0.95
2023-03-13T10:37:41.674Z,0.50
2023-03-13T10:39:44.326Z,1.17
2023-03-13T10:41:49.237Z,0.65
2023-03-13T10:43:54.028Z,1.00
2023-03-13T10:45:56.766Z,0.60
2023-03-13T10:48:15.252Z,2.58
2023-03-13T10:50:22.259Z,0.90
2023-03-13T10:52:49.779Z,1.67
2023-03-13T10:55:00.018Z,0.93
2023-03-13T10:57:32.958Z,0.28
2023-03-13T10:59:43.150Z,1.85
2023-03-13T11:01:45.924Z,1.38
2023-03-13T11:03:50.559Z,4.18
2023-03-13T11:06:00.749Z,0.60
2023-03-13T11:08:36.152Z,1.25
2023-03-13T11:11:11.264Z,1.13
2023-03-13T11:13:43.430Z,1.33
2023-03-13T11:15:57.586Z,1.05
2023-03-13T11:18:16.066Z,0.77
2023-03-13T11:20:27.449Z,1.50
2023-03-13T11:22:35.876Z,0.57
2023-03-13T11:25:00.657Z,2.35
2023-03-13T11:27:32.004Z,1.55
2023-03-13T11:30:01.920Z,1.13
2023-03-13T11:32:17.644Z,2.05
2023-03-13T11:34:32.782Z,1.00
2023-03-13T11:36:36.783Z,0.93
2023-03-13T11:38:54.793Z,1.02
2023-03-13T11:41:28.157Z,0.60
2023-03-13T11:43:42.029Z,1.58
2023-03-13T11:45:44.887Z,0.73
2023-03-13T11:48:03.903Z,1.60
2023-03-13T11:50:40.322Z,0.63
2023-03-13T11:53:14.525Z,0.70
2023-03-13T11:55:43.185Z,1.08
2023-03-13T11:58:24.725Z,1.80
2023-03-13T12:00:45.811Z,1.73
2023-03-13T12:03:12.913Z,0.30
2023-03-13T12:05:20.219Z,0.55
2023-03-13T12:07:35.443Z,0.55
2023-03-13T12:09:57.639Z,1.33
2023-03-13T12:14:15.978Z,4.97
2023-03-13T12:16:26.678Z,0.75
2023-03-13T12:18:38.633Z,0.93
2023-03-13T12:21:06.917Z,1.38
2023-03-13T12:23:24.768Z,1.35
2023-03-13T12:25:33.011Z,1.58
2023-03-13T12:27:43.472Z,1.33
2023-03-13T12:30:01.322Z,1.48
2023-03-13T12:32:19.960Z,2.53
2023-03-13T12:34:25.671Z,0.88
2023-03-13T12:36:32.669Z,0.93
2023-03-13T12:38:39.340Z,1.70
2023-03-13T12:40:46.284Z,1.52
2023-03-13T12:43:10.750Z,1.00
2023-03-13T12:45:24.186Z,0.98
2023-03-13T12:47:50.971Z,1.00
2023-03-13T12:50:08.761Z,0.35
2023-03-13T12:52:36.612Z,1.13
2023-03-13T12:54:50.923Z,0.80
2023-03-13T12:57:06.672Z,0.75
2023-03-13T12:59:29.481Z,3.08
2023-03-13T13:01:35.269Z,1.23
2023-03-13T13:03:55.741Z,4.10
2023-03-13T13:06:12.868Z,2.10
2023-03-13T13:08:26.290Z,1.38
2023-03-13T13:10:29.577Z,1.80
2023-03-13T13:12:32.286Z,1.58
2023-03-13T13:15:02.014Z,1.10
2023-03-13T13:17:33.934Z,2.13
2023-03-13T13:19:42.024Z,1.98
2023-03-13T13:21:44.724Z,1.10
2023-03-13T13:23:48.268Z,3.42
2023-03-13T13:25:51.960Z,0.88
2023-03-13T13:27:54.968Z,0.93
2023-03-13T13:29:59.507Z,2.08
2023-03-13T13:32:03.136Z,1.63
2023-03-13T13:34:05.862Z,1.17
2023-03-13T13:36:21.537Z,1.58
2023-03-13T13:38:37.138Z,0.95
2023-03-13T13:40:40.343Z,0.77
2023-03-13T13:42:52.236Z,0.75
2023-03-13T13:47:02.355Z,2.67
2023-03-13T13:49:05.897Z,1.42
2023-03-13T13:51:11.946Z,3.25
2023-03-13T13:53:29.761Z,2.08
2023-03-13T13:55:42.638Z,1.75
2023-03-13T13:57:46.420Z,0.93
2023-03-13T13:59:53.992Z,2.15
2023-03-13T14:02:10.271Z,2.75
2023-03-13T14:04:27.319Z,0.80
2023-03-13T14:06:36.490Z,0.93
2023-03-13T14:08:41.968Z,1.98
2023-03-13T14:10:49.611Z,1.55
2023-03-13T14:13:02.191Z,2.65
2023-03-13T14:15:08.993Z,1.33
2023-03-13T14:17:11.712Z,1.08
2023-03-13T14:19:35.939Z,1.52
2023-03-13T14:21:38.622Z,3.22
2023-03-13T14:23:46.660Z,1.13
2023-03-13T14:25:51.097Z,1.02
2023-03-13T14:27:55.087Z,1.85
2023-03-13T14:30:05.390Z,2.10
2023-03-13T14:32:08.841Z,1.83
2023-03-13T14:34:13.299Z,2.13
2023-03-13T14:36:16.010Z,1.42
2023-03-13T14:38:23.903Z,0.88
2023-03-13T14:40:29.918Z,3.25
2023-03-13T14:42:39.368Z,1.38
2023-03-13T14:44:44.199Z,1.27
2023-03-13T14:46:47.305Z,1.10
2023-03-13T14:48:50.000Z,1.95
2023-03-13T14:51:12.572Z,1.63
2023-03-13T14:53:20.810Z,1.25
2023-03-13T14:55:23.349Z,1.42
2023-03-13T14:57:29.555Z,1.73
2023-03-13T14:59:32.547Z,0.90
2023-03-13T15:01:35.286Z,1.60
2023-03-13T15:03:44.637Z,1.17
2023-03-13T15:06:07.482Z,1.38
2023-03-13T15:08:24.295Z,1.95
2023-03-13T15:10:37.269Z,1.15
2023-03-13T15:12:44.079Z,1.38
2023-03-13T15:14:49.099Z,1.27
2023-03-13T15:16:51.823Z,1.95
2023-03-13T15:18:56.438Z,1.63
2023-03-13T15:21:10.956Z,4.30
2023-03-13T15:23:15.503Z,1.73
2023-03-13T15:25:20.898Z,2.60
2023-03-13T15:27:25.913Z,2.92
2023-03-13T15:29:28.568Z,1.45
2023-03-13T15:31:31.292Z,2.15
2023-03-13T15:33:35.061Z,2.20
2023-03-13T15:35:37.804Z,1.73
2023-03-13T15:37:40.536Z,2.58
2023-03-13T15:39:43.305Z,2.25
2023-03-13T15:41:45.902Z,4.97
2023-03-13T15:43:52.833Z,1.10
2023-03-13T15:45:55.821Z,4.60
2023-03-13T15:48:00.019Z,3.30
2023-03-13T15:50:02.640Z,3.55
2023-03-13T15:52:17.776Z,13.65
2023-03-13T15:54:20.475Z,1.50
2023-03-13T15:56:23.608Z,1.55
2023-03-13T15:58:28.845Z,2.72
2023-03-13T16:00:31.515Z,0.88
2023-03-13T16:02:34.141Z,1.25
2023-03-13T16:04:38.060Z,1.45
2023-03-13T16:06:40.745Z,2.35
2023-03-13T16:08:43.521Z,1.67
2023-03-13T16:10:47.148Z,1.42
2023-03-13T16:12:49.754Z,2.40
2023-03-13T16:14:52.392Z,2.88
2023-03-13T16:16:55.166Z,3.38
2023-03-13T16:18:58.847Z,1.20
2023-03-13T16:21:01.531Z,1.83
2023-03-13T16:23:04.185Z,2.92
2023-03-13T16:25:07.774Z,4.57
2023-03-13T16:27:18.722Z,2.05
2023-03-13T16:29:21.421Z,1.60
2023-03-13T16:31:32.359Z,1.98
2023-03-13T16:33:35.358Z,1.33
2023-03-13T16:35:38.640Z,2.42
2023-03-13T16:37:41.806Z,2.35
2023-03-13T16:39:45.675Z,4.93
2023-03-13T16:41:48.297Z,3.70
2023-03-13T16:43:51.623Z,3.50
2023-03-13T16:45:54.244Z,1.42
2023-03-13T16:47:57.102Z,2.47
2023-03-13T16:49:59.848Z,2.25
2023-03-13T16:52:02.475Z,3.92
2023-03-13T16:54:06.739Z,3.45
2023-03-13T16:56:23.804Z,1.33
2023-03-13T16:58:26.503Z,1.30
2023-03-13T17:00:31.206Z,1.63
2023-03-13T17:02:37.701Z,4.68
2023-03-13T17:04:43.127Z,1.58
2023-03-13T17:06:47.965Z,2.50
2023-03-13T17:08:50.979Z,3.15
2023-03-13T17:10:54.433Z,1.70
2023-03-13T17:12:59.166Z,2.45
2023-03-13T17:15:02.077Z,2.58
2023-03-13T17:17:07.343Z,2.40
2023-03-13T17:19:13.850Z,1.38
2023-03-13T17:21:22.535Z,3.63
2023-03-13T17:23:36.032Z,1.90
2023-03-13T17:25:39.688Z,1.88
2023-03-13T17:27:44.223Z,2.17
2023-03-13T17:29:47.438Z,1.67
2023-03-13T17:31:50.821Z,1.20
2023-03-13T17:33:53.822Z,2.13
2023-03-13T17:35:56.509Z,1.75
2023-03-13T17:37:59.141Z,1.83
2023-03-13T17:40:01.918Z,1.00
2023-03-13T17:42:06.297Z,1.50
2023-03-13T17:44:08.980Z,3.75
2023-03-13T17:46:38.919Z,3.08
2023-03-13T17:48:41.755Z,2.28
2023-03-13T17:50:44.483Z,3.08
2023-03-13T17:52:47.146Z,5.15
2023-03-13T17:54:49.761Z,1.65
2023-03-13T17:56:52.497Z,5.05
2023-03-13T17:58:58.630Z,2.22
2023-03-13T18:01:01.238Z,4.55
2023-03-13T18:03:04.214Z,1.42
2023-03-13T18:05:07.469Z,1.35
2023-03-13T18:07:30.278Z,2.38
2023-03-13T18:09:32.953Z,1.52
2023-03-13T18:11:37.345Z,1.67
2023-03-13T18:13:40.130Z,0.77
2023-03-13T18:15:42.806Z,1.48
2023-03-13T18:17:45.903Z,1.65
2023-03-13T18:19:50.125Z,1.33
2023-03-13T18:21:55.400Z,1.15
2023-03-13T18:23:58.844Z,3.75
2023-03-13T18:26:01.515Z,2.22
2023-03-13T18:28:04.294Z,1.48
2023-03-13T18:30:27.756Z,2.72
2023-03-13T18:32:30.508Z,2.05
2023-03-13T18:34:35.167Z,2.17
2023-03-13T18:36:38.284Z,0.98
2023-03-13T18:38:40.931Z,0.95
2023-03-13T18:40:43.468Z,1.13
2023-03-13T18:42:46.282Z,2.05
2023-03-13T18:44:48.995Z,3.28
2023-03-13T18:46:53.143Z,1.30
2023-03-13T18:48:56.189Z,3.17
2023-03-13T18:50:58.888Z,1.40
2023-03-13T18:53:01.966Z,1.42
2023-03-13T18:55:04.833Z,1.75
2023-03-13T18:57:19.355Z,3.63
2023-03-13T18:59:23.534Z,1.33
2023-03-13T19:01:28.743Z,0.57
2023-03-13T19:03:31.389Z,1.33
2023-03-13T19:05:33.984Z,0.80
2023-03-13T19:07:36.552Z,2.88
2023-03-13T19:09:43.552Z,1.83
2023-03-13T19:11:47.831Z,1.52
2023-03-13T19:13:51.001Z,2.28
2023-03-13T19:15:53.621Z,1.27
2023-03-13T19:17:56.561Z,1.45
2023-03-13T19:19:59.241Z,5.97
2023-03-13T19:22:02.335Z,1.35
2023-03-13T19:24:05.490Z,0.50
2023-03-13T19:26:17.435Z,0.63
2023-03-13T19:28:20.562Z,5.35
2023-03-13T19:30:25.770Z,1.42
2023-03-13T19:32:29.250Z,1.30
2023-03-13T19:34:32.006Z,2.00
2023-03-13T19:36:37.822Z,1.65
2023-03-13T19:38:40.619Z,0.30
2023-03-13T19:40:43.325Z,0.93
2023-03-13T19:42:46.119Z,0.77
2023-03-13T19:44:49.026Z,1.05
2023-03-13T19:46:54.705Z,1.75
2023-03-13T19:49:02.181Z,0.70
2023-03-13T19:51:04.942Z,1.27
2023-03-13T19:53:07.881Z,0.77
2023-03-13T19:55:10.722Z,4.05
2023-03-13T19:57:13.864Z,1.20
2023-03-13T19:59:23.433Z,0.88
2023-03-13T20:01:26.886Z,2.05
2023-03-13T20:03:30.182Z,1.88
2023-03-13T20:05:32.797Z,1.00
2023-03-13T20:07:35.366Z,0.73
2023-03-13T20:09:38.001Z,0.43
2023-03-13T20:11:41.650Z,0.55
2023-03-13T20:13:44.754Z,0.77
2023-03-13T20:15:47.335Z,0.43
2023-03-13T20:17:49.955Z,3.25
2023-03-13T20:19:52.626Z,1.23
2023-03-13T20:21:59.782Z,0.65
2023-03-13T20:24:02.932Z,2.42
2023-03-13T20:26:09.860Z,0.30
2023-03-13T20:28:12.538Z,0.80
2023-03-13T20:30:15.674Z,0.40
2023-03-13T20:32:19.685Z,0.90
2023-03-13T20:34:23.339Z,1.20
2023-03-13T20:36:26.916Z,1.13
2023-03-13T20:38:30.021Z,0.52
2023-03-13T20:40:34.080Z,2.17
2023-03-13T20:42:39.429Z,2.00
2023-03-13T20:44:42.159Z,1.85
2023-03-13T20:46:44.789Z,1.13
2023-03-13T20:48:47.525Z,0.43
2023-03-13T20:50:52.138Z,2.30
2023-03-13T20:52:56.394Z,0.80
2023-03-13T20:54:59.001Z,0.63
2023-03-13T20:57:02.593Z,0.50
2023-03-13T20:59:05.305Z,1.33
2023-03-13T21:01:08.248Z,0.57
2023-03-13T21:03:10.944Z,1.30
2023-03-13T21:05:13.742Z,2.37
2023-03-13T21:07:16.384Z,1.00
2023-03-13T21:09:19.057Z,1.95
2023-03-13T21:11:23.700Z,2.78
2023-03-13T21:13:26.317Z,1.15
2023-03-13T21:15:28.983Z,1.13
2023-03-13T21:17:31.647Z,1.03
2023-03-13T21:19:34.644Z,4.68
2023-03-13T21:21:37.256Z,1.95
2023-03-13T21:23:40.027Z,1.30
2023-03-13T21:25:42.708Z,0.75
2023-03-13T21:27:45.692Z,0.70
2023-03-13T21:29:51.159Z,0.45
2023-03-13T21:31:53.979Z,1.80
2023-03-13T21:33:57.528Z,2.07
2023-03-13T21:36:00.273Z,1.00
2023-03-13T21:38:03.157Z,0.90
2023-03-13T21:40:06.992Z,2.10
2023-03-13T21:42:12.438Z,0.90
2023-03-13T21:44:19.701Z,0.47
2023-03-13T21:46:23.772Z,1.05
2023-03-13T21:48:26.717Z,0.93
2023-03-13T21:50:29.670Z,1.08
2023-03-13T21:52:41.316Z,0.57
2023-03-13T21:54:44.181Z,3.30
2023-03-13T21:56:46.841Z,3.23
2023-03-13T21:58:49.691Z,1.80
2023-03-13T22:00:58.712Z,2.78
2023-03-13T22:03:01.394Z,0.93
2023-03-13T22:05:05.256Z,1.93
2023-03-13T22:07:08.133Z,0.73
2023-03-13T22:09:10.833Z,1.50
2023-03-13T22:11:13.702Z,1.10
2023-03-13T22:13:16.732Z,1.13
2023-03-13T22:15:19.373Z,1.27
2023-03-13T22:17:22.317Z,1.10
2023-03-13T22:19:24.947Z,1.17
2023-03-13T22:21:27.628Z,0.90
2023-03-13T22:23:30.416Z,1.00
2023-03-13T22:25:33.484Z,0.83
2023-03-13T22:27:36.135Z,1.03
2023-03-13T22:29:38.742Z,1.33
2023-03-13T22:31:41.364Z,1.40
2023-03-13T22:33:44.104Z,2.37
2023-03-13T22:35:52.671Z,1.50
2023-03-13T22:37:56.146Z,1.17
2023-03-13T22:39:58.766Z,1.70
2023-03-13T22:42:01.341Z,1.53
2023-03-13T22:44:04.041Z,1.50
2023-03-13T22:46:07.377Z,1.50
2023-03-13T22:48:09.971Z,0.87
2023-03-13T22:50:13.428Z,1.63
2023-03-13T22:52:16.080Z,1.33
2023-03-13T22:54:18.661Z,1.07
2023-03-13T22:56:21.492Z,1.97
2023-03-13T22:58:24.193Z,0.90
2023-03-13T23:00:26.961Z,1.80
2023-03-13T23:02:29.843Z,1.03
2023-03-13T23:04:32.460Z,1.87
2023-03-13T23:06:35.058Z,2.40
2023-03-13T23:08:37.726Z,0.97
2023-03-13T23:10:43.828Z,1.73
2023-03-13T23:12:46.449Z,2.33
2023-03-13T23:14:49.167Z,0.87
2023-03-13T23:16:51.842Z,2.70
2023-03-13T23:18:54.507Z,1.53
2023-03-13T23:20:57.125Z,1.90
2023-03-13T23:22:59.712Z,1.00
2023-03-13T23:25:02.451Z,1.30
2023-03-13T23:27:05.923Z,2.43
2023-03-13T23:29:08.643Z,2.30
2023-03-13T23:31:14.503Z,1.53
2023-03-13T23:33:17.117Z,1.87
2023-03-13T23:35:19.921Z,0.80
2023-03-13T23:37:22.637Z,2.17
2023-03-13T23:39:25.236Z,1.97
2023-03-13T23:41:27.828Z,1.60
2023-03-13T23:43:30.393Z,5.78
2023-03-13T23:45:36.552Z,1.63
2023-03-13T23:47:39.437Z,1.43
2023-03-13T23:49:42.074Z,1.60
2023-03-13T23:51:44.617Z,2.03
2023-03-13T23:53:47.323Z,1.60
2023-03-13T23:55:58.553Z,1.33
2023-03-13T23:58:01.261Z,1.23
